createdAt,value
2018-07-17T00:00:56.028Z,101323.98
2018-07-17T00:03:24.489Z,101320.00
2018-07-17T00:05:53.269Z,101320.91
2018-07-17T00:08:22.114Z,101322.28
2018-07-17T00:10:50.970Z,101318.73
2018-07-17T00:13:19.610Z,101317.39
2018-07-17T00:15:48.398Z,101318.75
2018-07-17T00:18:17.154Z,101312.98
2018-07-17T00:20:45.650Z,101314.78
2018-07-17T00:23:14.134Z,101311.67
2018-07-17T00:25:43.158Z,101308.59
2018-07-17T00:28:11.739Z,101202.11
2018-07-17T00:30:40.149Z,101302.88
2018-07-17T00:33:08.966Z,101301.15
2018-07-17T00:35:38.046Z,101298.59
2018-07-17T00:38:06.705Z,101294.61
2018-07-17T00:40:35.138Z,101295.53
2018-07-17T00:43:03.567Z,101298.24
2018-07-17T00:45:32.302Z,101166.09
2018-07-17T00:48:01.172Z,101293.41
2018-07-17T00:50:30.012Z,101295.21
2018-07-17T00:52:58.658Z,101289.92
2018-07-17T00:55:27.092Z,101293.09
2018-07-17T00:57:55.536Z,101288.67
2018-07-17T01:00:29.604Z,101286.11
2018-07-17T01:03:03.123Z,101288.38
2018-07-17T01:05:36.845Z,101291.52
2018-07-17T01:08:10.794Z,101280.44
2018-07-17T01:10:44.500Z,101284.91
2018-07-17T01:13:19.572Z,101285.39
2018-07-17T01:15:48.381Z,101291.21
2018-07-17T01:18:17.338Z,101289.91
2018-07-17T01:20:46.615Z,101284.17
2018-07-17T01:23:15.142Z,101287.30
2018-07-17T01:25:43.723Z,101290.44
2018-07-17T01:28:12.232Z,101289.61
2018-07-17T01:30:47.958Z,101288.30
2018-07-17T01:33:16.362Z,101291.41
2018-07-17T01:35:45.019Z,101286.55
2018-07-17T01:38:13.826Z,101285.25
2018-07-17T01:40:42.279Z,101285.30
2018-07-17T01:43:10.777Z,101286.18
2018-07-17T01:45:39.753Z,101288.86
2018-07-17T01:48:08.631Z,101288.88
2018-07-17T01:50:37.455Z,101289.77
2018-07-17T01:53:06.330Z,101288.03
2018-07-17T01:55:35.124Z,101286.74
2018-07-17T01:58:03.817Z,101286.31
2018-07-17T02:00:32.799Z,101289.02
2018-07-17T02:03:01.516Z,101287.70
2018-07-17T02:05:29.922Z,101283.72
2018-07-17T02:07:58.341Z,101287.73
2018-07-17T02:10:26.933Z,101286.41
2018-07-17T02:12:55.326Z,101294.02
2018-07-17T02:15:23.930Z,101289.59
2018-07-17T02:17:52.682Z,101296.69
2018-07-17T02:20:21.286Z,101292.28
2018-07-17T02:22:50.044Z,101298.53
2018-07-17T02:25:18.738Z,101295.41
2018-07-17T02:27:47.464Z,101294.50
2018-07-17T02:30:16.977Z,101294.50
2018-07-17T02:32:45.370Z,101302.47
2018-07-17T02:35:14.410Z,101294.45
2018-07-17T02:37:42.920Z,101299.77
2018-07-17T02:40:11.612Z,101301.11
2018-07-17T02:42:40.154Z,101298.44
2018-07-17T02:45:09.043Z,101297.98
2018-07-17T02:47:37.433Z,101295.31
2018-07-17T02:50:06.347Z,101291.75
2018-07-17T02:52:35.214Z,101293.95
2018-07-17T02:55:03.678Z,101296.57
2018-07-17T02:57:32.078Z,101290.78
2018-07-17T03:00:00.834Z,101299.22
2018-07-17T03:02:29.628Z,101294.34
2018-07-17T03:04:58.039Z,101298.34
2018-07-17T03:07:26.595Z,101301.42
2018-07-17T03:09:55.391Z,101305.00
2018-07-17T03:12:23.790Z,101304.55
2018-07-17T03:14:52.742Z,101317.44
2018-07-17T03:17:21.435Z,101313.44
2018-07-17T03:19:50.676Z,101314.75
2018-07-17T03:22:19.406Z,101289.91
2018-07-17T03:24:47.949Z,101308.06
2018-07-17T03:27:16.607Z,101310.30
2018-07-17T03:29:45.383Z,101308.09
2018-07-17T03:32:13.794Z,101304.50
2018-07-17T03:34:42.548Z,101298.27
2018-07-17T03:37:11.466Z,101303.14
2018-07-17T03:39:39.884Z,101301.31
2018-07-17T03:42:08.803Z,101298.59
2018-07-17T03:44:37.496Z,101298.98
2018-07-17T03:47:05.890Z,101298.48
2018-07-17T03:49:34.769Z,101292.66
2018-07-17T03:52:03.839Z,101302.39
2018-07-17T03:54:32.266Z,101303.67
2018-07-17T03:57:00.672Z,101308.98
2018-07-17T03:59:29.719Z,101305.83
2018-07-17T04:01:58.146Z,101312.47
2018-07-17T04:04:26.882Z,101308.45
2018-07-17T04:06:55.738Z,101313.30
2018-07-17T04:09:24.127Z,101305.71
2018-07-17T04:11:52.531Z,101316.34
2018-07-17T04:14:21.396Z,101313.20
2018-07-17T04:16:58.128Z,101310.08
2018-07-17T04:19:27.434Z,101311.41
2018-07-17T04:21:55.859Z,101311.84
2018-07-17T04:24:24.890Z,101317.61
2018-07-17T04:26:54.133Z,101319.83
2018-07-17T04:29:23.057Z,101314.47
2018-07-17T04:31:51.863Z,101207.88
2018-07-17T04:34:20.804Z,101281.22
2018-07-17T04:36:49.746Z,101312.16
2018-07-17T04:39:18.490Z,101316.11
2018-07-17T04:41:47.713Z,101314.73
2018-07-17T04:44:16.805Z,101306.23
2018-07-17T04:46:45.147Z,101305.33
2018-07-17T04:49:14.370Z,101305.72
2018-07-17T04:51:43.570Z,101304.78
2018-07-17T04:54:11.975Z,101306.47
2018-07-17T04:56:40.598Z,101299.71
2018-07-17T04:59:09.245Z,101304.99
2018-07-17T05:01:37.698Z,101303.57
2018-07-17T05:04:06.167Z,101300.84
2018-07-17T05:06:35.270Z,101303.42
2018-07-17T05:09:04.479Z,101303.33
2018-07-17T05:11:32.946Z,101300.14
2018-07-17T05:14:01.639Z,101297.45
2018-07-17T05:16:36.623Z,101304.93
2018-07-17T05:19:05.588Z,101308.84
2018-07-17T05:21:34.218Z,101304.27
2018-07-17T05:24:03.023Z,101310.85
2018-07-17T05:26:31.507Z,101306.77
2018-07-17T05:29:00.249Z,101305.36
2018-07-17T05:31:29.021Z,101302.13
2018-07-17T05:33:57.438Z,101180.60
2018-07-17T05:36:26.269Z,101308.13
2018-07-17T05:38:54.702Z,101305.33
2018-07-17T05:41:23.386Z,101303.45
2018-07-17T05:43:51.990Z,101300.70
2018-07-17T05:46:21.259Z,101306.83
2018-07-17T05:48:49.776Z,101307.17
2018-07-17T05:51:18.366Z,101302.59
2018-07-17T05:53:47.268Z,101306.46
2018-07-17T05:56:15.706Z,101304.06
2018-07-17T05:58:44.399Z,101309.24
2018-07-17T06:01:13.301Z,101309.09
2018-07-17T06:03:42.090Z,101307.98
2018-07-17T06:06:10.508Z,101297.60
2018-07-17T06:08:39.048Z,101302.34
2018-07-17T06:11:07.788Z,101304.86
2018-07-17T06:13:36.254Z,101302.02
2018-07-17T06:16:05.114Z,101300.93
2018-07-17T06:18:33.907Z,101297.20
2018-07-17T06:21:02.282Z,101296.14
2018-07-17T06:23:31.150Z,101289.68
2018-07-17T06:25:59.962Z,101296.62
2018-07-17T06:28:28.386Z,101293.73
2018-07-17T06:30:57.248Z,101296.61
2018-07-17T06:33:26.470Z,101295.00
2018-07-17T06:35:55.006Z,101289.40
2018-07-17T06:38:23.608Z,101289.62
2018-07-17T06:40:52.018Z,101283.97
2018-07-17T06:43:20.762Z,101286.45
2018-07-17T06:45:49.971Z,101287.05
2018-07-17T06:48:18.359Z,101287.30
2018-07-17T06:50:47.178Z,101291.91
2018-07-17T06:53:16.970Z,101291.65
2018-07-17T06:55:45.376Z,101296.73
2018-07-17T06:58:14.334Z,101287.43
2018-07-17T07:00:43.124Z,101294.25
2018-07-17T07:03:11.538Z,101280.98
2018-07-17T07:05:39.939Z,101277.92
2018-07-17T07:08:08.839Z,101271.28
2018-07-17T07:10:37.509Z,101277.63
2018-07-17T07:13:06.329Z,101273.34
2018-07-17T07:15:34.759Z,101271.65
2018-07-17T07:18:03.574Z,101275.16
2018-07-17T07:20:31.963Z,101275.37
2018-07-17T07:23:00.869Z,101269.45
2018-07-17T07:25:29.618Z,101272.90
2018-07-17T07:27:58.014Z,101270.81
2018-07-17T07:30:26.685Z,101269.49
2018-07-17T07:32:55.422Z,101268.71
2018-07-17T07:35:24.222Z,101266.52
2018-07-17T07:37:52.783Z,101265.61
2018-07-17T07:40:22.313Z,101262.86
2018-07-17T07:42:51.083Z,101268.83
2018-07-17T07:45:20.044Z,101256.75
2018-07-17T07:47:48.436Z,101259.70
2018-07-17T07:50:17.094Z,101254.78
2018-07-17T07:52:45.851Z,101258.03
2018-07-17T07:55:14.514Z,101259.70
2018-07-17T07:57:43.152Z,101254.61
2018-07-17T08:00:11.742Z,101256.98
2018-07-17T08:02:40.274Z,101250.86
2018-07-17T08:05:08.928Z,101254.84
2018-07-17T08:07:37.346Z,101256.01
2018-07-17T08:10:06.545Z,101247.78
2018-07-17T08:12:35.392Z,101251.80
2018-07-17T08:15:03.851Z,101254.02
2018-07-17T08:17:32.282Z,101250.45
2018-07-17T08:20:01.042Z,101256.06
2018-07-17T08:22:29.994Z,101258.19
2018-07-17T08:24:58.622Z,101256.24
2018-07-17T08:27:27.094Z,101254.72
2018-07-17T08:29:55.814Z,101256.17
2018-07-17T08:32:24.198Z,101254.59
2018-07-17T08:34:52.642Z,101248.09
2018-07-17T08:37:21.971Z,101252.33
2018-07-17T08:39:50.458Z,101251.61
2018-07-17T08:42:18.882Z,101251.65
2018-07-17T08:44:48.099Z,101256.20
2018-07-17T08:47:16.558Z,101252.03
2018-07-17T08:49:44.946Z,101257.15
2018-07-17T08:52:13.661Z,101261.02
2018-07-17T08:54:42.161Z,101257.76
2018-07-17T08:57:10.991Z,101262.77
2018-07-17T08:59:39.843Z,101261.06
2018-07-17T09:02:08.331Z,101252.37
2018-07-17T09:04:36.740Z,101253.13
2018-07-17T09:07:05.452Z,101256.97
2018-07-17T09:09:34.106Z,101253.51
2018-07-17T09:12:02.507Z,101257.10
2018-07-17T09:14:31.700Z,101258.06
2018-07-17T09:17:00.470Z,101254.67
2018-07-17T09:19:28.919Z,101256.69
2018-07-17T09:21:58.048Z,101254.53
2018-07-17T09:24:26.859Z,101254.47
2018-07-17T09:26:55.266Z,101261.05
2018-07-17T09:29:24.094Z,101252.30
2018-07-17T09:31:52.888Z,101254.31
2018-07-17T09:34:21.296Z,101253.45
2018-07-17T09:36:49.880Z,101253.66
2018-07-17T09:39:18.724Z,101256.94
2018-07-17T09:41:47.122Z,101267.64
2018-07-17T09:44:15.956Z,101262.16
2018-07-17T09:46:44.716Z,101260.74
2018-07-17T09:49:13.358Z,101259.26
2018-07-17T09:51:42.277Z,101258.22
2018-07-17T09:54:10.703Z,101262.44
2018-07-17T09:56:39.442Z,101262.01
2018-07-17T09:59:08.030Z,101261.75
2018-07-17T10:01:41.619Z,101272.17
2018-07-17T10:04:10.645Z,101263.70
2018-07-17T10:06:39.145Z,101267.15
2018-07-17T10:09:08.030Z,101263.36
2018-07-17T10:11:37.014Z,101261.35
2018-07-17T10:14:05.763Z,101264.17
2018-07-17T10:16:34.251Z,101262.48
2018-07-17T10:19:02.987Z,101261.35
2018-07-17T10:21:31.618Z,101251.25
2018-07-17T10:24:00.545Z,101249.32
2018-07-17T10:26:29.546Z,101248.99
2018-07-17T10:28:57.960Z,101242.90
2018-07-17T10:31:26.456Z,101241.77
2018-07-17T10:33:55.023Z,101239.34
2018-07-17T10:36:23.457Z,101237.20
2018-07-17T10:38:52.054Z,101236.47
2018-07-17T10:41:21.553Z,101232.95
2018-07-17T10:43:50.623Z,101225.70
2018-07-17T10:46:19.694Z,101230.55
2018-07-17T10:48:48.912Z,101230.65
2018-07-17T10:51:17.407Z,101234.27
2018-07-17T10:53:45.970Z,101227.45
2018-07-17T10:56:15.231Z,101220.52
2018-07-17T10:58:44.056Z,101218.42
2018-07-17T11:01:12.481Z,101221.25
2018-07-17T11:03:41.652Z,101224.00
2018-07-17T11:06:10.101Z,101222.25
2018-07-17T11:08:38.561Z,101216.31
2018-07-17T11:11:08.085Z,101211.45
2018-07-17T11:13:36.516Z,101222.02
2018-07-17T11:16:05.493Z,101218.31
2018-07-17T11:18:34.714Z,101215.80
2018-07-17T11:21:03.191Z,101216.52
2018-07-17T11:23:31.650Z,101214.18
2018-07-17T11:26:01.282Z,101214.73
2018-07-17T11:28:29.761Z,101214.33
2018-07-17T11:30:58.231Z,101216.03
2018-07-17T11:33:26.890Z,101212.59
2018-07-17T11:35:55.501Z,101210.20
2018-07-17T11:38:24.321Z,101217.16
2018-07-17T11:40:52.916Z,101212.63
2018-07-17T11:43:22.053Z,101215.28
2018-07-17T11:45:51.473Z,101208.28
2018-07-17T11:48:21.027Z,101211.36
2018-07-17T11:50:50.039Z,101206.87
2018-07-17T11:53:18.511Z,101205.58
2018-07-17T11:55:47.553Z,101201.09
2018-07-17T11:58:16.038Z,101209.30
2018-07-17T12:00:44.826Z,101206.98
2018-07-17T12:03:13.693Z,101205.33
2018-07-17T12:05:42.205Z,101201.98
2018-07-17T12:08:10.989Z,101198.08
2018-07-17T12:10:40.374Z,101201.56
2018-07-17T12:13:09.417Z,101201.69
2018-07-17T12:15:37.809Z,101200.30
2018-07-17T12:18:06.729Z,101197.22
2018-07-17T12:20:35.709Z,101194.78
2018-07-17T12:23:04.258Z,101200.39
2018-07-17T12:25:33.096Z,101198.45
2018-07-17T12:28:01.953Z,101201.06
2018-07-17T12:30:30.393Z,101203.48
2018-07-17T12:32:59.165Z,101193.17
2018-07-17T12:35:28.069Z,101191.49
2018-07-17T12:37:56.667Z,101190.86
2018-07-17T12:40:25.349Z,101200.56
2018-07-17T12:42:54.004Z,101194.66
2018-07-17T12:45:22.865Z,101194.94
2018-07-17T12:47:51.607Z,101200.50
2018-07-17T12:50:20.016Z,101193.13
2018-07-17T12:52:48.526Z,101197.70
2018-07-17T12:55:16.982Z,101200.09
2018-07-17T12:57:45.379Z,101195.55
2018-07-17T13:00:14.151Z,101207.36
2018-07-17T13:02:42.827Z,101200.48
2018-07-17T13:05:11.327Z,101196.28
2018-07-17T13:07:39.885Z,101199.48
2018-07-17T13:10:08.330Z,101193.87
2018-07-17T13:12:36.746Z,101195.41
2018-07-17T13:15:05.399Z,101191.91
2018-07-17T13:17:34.394Z,101193.25
2018-07-17T13:20:03.027Z,101194.53
2018-07-17T13:22:31.682Z,101187.94
2018-07-17T13:25:00.275Z,101182.94
2018-07-17T13:27:28.773Z,101183.23
2018-07-17T13:29:57.747Z,101180.70
2018-07-17T13:32:26.671Z,101184.02
2018-07-17T13:34:55.080Z,101189.06
2018-07-17T13:37:23.494Z,101182.20
2018-07-17T13:39:52.080Z,101182.63
2018-07-17T13:42:21.503Z,101178.91
2018-07-17T13:44:49.948Z,101176.95
2018-07-17T13:47:20.003Z,101181.03
2018-07-17T13:49:48.481Z,101163.48
2018-07-17T13:52:16.960Z,101165.50
2018-07-17T13:54:45.718Z,101169.41
2018-07-17T13:57:14.139Z,101161.86
2018-07-17T13:59:42.902Z,101155.81
2018-07-17T14:02:11.614Z,101153.28
2018-07-17T14:04:40.843Z,101155.09
2018-07-17T14:07:09.235Z,101157.23
2018-07-17T14:09:37.842Z,101149.00
2018-07-17T14:12:06.627Z,101152.37
2018-07-17T14:14:35.014Z,101158.56
2018-07-17T14:17:03.811Z,101154.80
2018-07-17T14:19:32.707Z,101153.09
2018-07-17T14:22:01.355Z,101160.12
2018-07-17T14:24:29.863Z,101144.02
2018-07-17T14:26:58.266Z,101152.30
2018-07-17T14:29:27.111Z,101139.31
2018-07-17T14:31:55.694Z,101122.86
2018-07-17T14:34:24.099Z,101140.38
2018-07-17T14:36:52.886Z,101141.90
2018-07-17T14:39:21.360Z,101140.64
2018-07-17T14:41:50.119Z,101142.34
2018-07-17T14:44:19.149Z,101139.15
2018-07-17T14:46:47.936Z,101133.71
2018-07-17T14:49:16.752Z,101045.94
2018-07-17T14:51:45.303Z,101130.11
2018-07-17T14:54:14.479Z,101136.02
2018-07-17T14:56:42.877Z,101126.58
2018-07-17T14:59:11.275Z,101130.74
2018-07-17T15:01:39.743Z,101133.56
2018-07-17T15:04:08.162Z,101138.68
2018-07-17T15:06:36.574Z,101135.20
2018-07-17T15:09:07.220Z,101132.98
2018-07-17T15:11:35.627Z,101133.72
2018-07-17T15:14:04.052Z,101135.89
2018-07-17T15:16:32.862Z,101132.19
2018-07-17T15:19:01.274Z,101136.28
2018-07-17T15:21:29.782Z,101131.47
2018-07-17T15:24:01.239Z,101138.17
2018-07-17T15:26:29.954Z,101133.70
2018-07-17T15:28:58.338Z,101135.81
2018-07-17T15:31:27.241Z,101134.17
2018-07-17T15:33:55.985Z,101133.95
2018-07-17T15:36:24.415Z,101137.44
2018-07-17T15:38:53.608Z,101132.95
2018-07-17T15:41:22.471Z,101142.41
2018-07-17T15:43:51.048Z,101138.91
2018-07-17T15:46:20.229Z,101136.80
2018-07-17T15:48:49.367Z,101137.41
2018-07-17T15:51:18.255Z,101130.33
2018-07-17T15:53:46.942Z,101139.31
2018-07-17T15:56:15.354Z,101140.81
2018-07-17T15:58:44.114Z,101137.80
2018-07-17T16:01:13.310Z,101139.79
2018-07-17T16:03:41.711Z,101143.14
2018-07-17T16:06:10.498Z,101139.89
2018-07-17T16:08:39.446Z,101141.92
2018-07-17T16:11:08.074Z,101132.69
2018-07-17T16:13:37.023Z,101131.39
2018-07-17T16:16:06.091Z,101138.91
2018-07-17T16:18:34.760Z,101138.03
2018-07-17T16:21:03.191Z,101127.65
2018-07-17T16:23:31.866Z,101129.05
2018-07-17T16:26:00.551Z,101126.70
2018-07-17T16:28:29.234Z,101125.37
2018-07-17T16:30:58.434Z,101122.58
2018-07-17T16:33:27.200Z,101123.15
2018-07-17T16:35:55.851Z,101124.63
2018-07-17T16:38:24.587Z,101123.23
2018-07-17T16:40:53.532Z,101134.91
2018-07-17T16:43:21.948Z,101127.96
2018-07-17T16:45:50.831Z,101129.63
2018-07-17T16:48:19.342Z,101128.64
2018-07-17T16:50:47.874Z,101105.11
2018-07-17T16:53:16.597Z,101127.09
2018-07-17T16:55:44.985Z,101132.33
2018-07-17T16:58:13.551Z,101114.31
2018-07-17T17:00:42.192Z,101124.64
2018-07-17T17:03:10.843Z,101124.79
2018-07-17T17:05:39.498Z,101120.56
2018-07-17T17:08:09.006Z,101130.12
2018-07-17T17:10:37.867Z,101127.69
2018-07-17T17:13:06.792Z,101126.88
2018-07-17T17:15:35.370Z,101125.41
2018-07-17T17:18:04.035Z,101117.48
2018-07-17T17:20:32.830Z,101119.12
2018-07-17T17:23:01.460Z,101117.45
2018-07-17T17:25:29.852Z,101122.23
2018-07-17T17:27:58.335Z,101114.71
2018-07-17T17:30:26.904Z,101113.86
2018-07-17T17:32:55.403Z,101109.15
2018-07-17T17:35:24.066Z,101112.44
2018-07-17T17:37:53.018Z,101111.78
2018-07-17T17:40:21.436Z,101119.67
2018-07-17T17:42:50.286Z,101118.93
2018-07-17T17:45:20.252Z,101120.59
2018-07-17T17:47:48.635Z,101115.01
2018-07-17T17:50:17.034Z,101114.92
2018-07-17T17:52:45.780Z,101113.52
2018-07-17T17:55:14.615Z,101117.17
2018-07-17T17:57:43.002Z,101117.16
2018-07-17T18:00:11.852Z,101128.03
2018-07-17T18:02:40.259Z,101128.30
2018-07-17T18:05:08.678Z,101124.41
2018-07-17T18:07:37.777Z,101126.52
2018-07-17T18:10:06.624Z,101125.94
2018-07-17T18:12:35.029Z,101125.16
2018-07-17T18:15:04.170Z,101124.84
2018-07-17T18:17:32.566Z,101125.38
2018-07-17T18:20:00.983Z,101125.41
2018-07-17T18:22:30.178Z,101123.81
2018-07-17T18:24:58.984Z,101127.71
2018-07-17T18:27:27.390Z,101137.85
2018-07-17T18:29:55.874Z,101133.33
2018-07-17T18:32:24.727Z,101135.30
2018-07-17T18:34:53.126Z,101132.73
2018-07-17T18:37:21.573Z,101138.27
2018-07-17T18:39:50.482Z,101134.27
2018-07-17T18:42:19.808Z,101145.20
2018-07-17T18:44:48.668Z,101150.36
2018-07-17T18:47:17.063Z,101151.97
2018-07-17T18:49:45.837Z,101148.72
2018-07-17T18:52:14.442Z,101150.26
2018-07-17T18:54:43.036Z,101152.37
2018-07-17T18:57:12.202Z,101151.21
2018-07-17T18:59:40.840Z,101156.05
2018-07-17T19:02:09.308Z,101159.88
2018-07-17T19:04:38.064Z,101158.30
2018-07-17T19:07:06.946Z,101164.35
2018-07-17T19:09:35.320Z,101167.31
2018-07-17T19:12:04.291Z,101164.34
2018-07-17T19:14:33.178Z,101166.75
2018-07-17T19:17:01.719Z,101164.41
2018-07-17T19:19:30.111Z,101169.45
2018-07-17T19:21:59.667Z,101170.62
2018-07-17T19:24:28.199Z,101170.80
2018-07-17T19:26:56.758Z,101170.16
2018-07-17T19:29:26.044Z,101177.95
2018-07-17T19:31:54.717Z,101169.64
2018-07-17T19:34:24.098Z,101173.80
2018-07-17T19:36:53.129Z,101169.98
2018-07-17T19:39:21.697Z,101164.83
2018-07-17T19:41:50.350Z,101167.22
2018-07-17T19:44:20.490Z,101166.03
2018-07-17T19:46:49.734Z,101170.77
2018-07-17T19:49:18.763Z,101174.66
2018-07-17T19:51:47.482Z,101172.66
2018-07-17T19:54:15.951Z,101175.52
2018-07-17T19:56:44.741Z,101179.23
2018-07-17T19:59:13.832Z,101179.50
2018-07-17T20:01:42.251Z,101174.34
2018-07-17T20:04:10.829Z,101177.77
2018-07-17T20:06:39.715Z,101183.36
2018-07-17T20:09:08.744Z,101179.63
2018-07-17T20:11:37.146Z,101185.26
2018-07-17T20:14:06.556Z,101184.58
2018-07-17T20:16:34.954Z,101181.20
2018-07-17T20:19:03.394Z,101180.57
2018-07-17T20:21:32.216Z,101177.58
2018-07-17T20:24:01.130Z,101183.00
2018-07-17T20:26:29.602Z,101178.14
2018-07-17T20:28:58.386Z,101185.79
2018-07-17T20:31:27.222Z,101188.06
2018-07-17T20:33:55.596Z,101182.78
2018-07-17T20:36:24.706Z,101186.91
2018-07-17T20:38:56.482Z,101188.77
2018-07-17T20:41:25.802Z,101188.86
2018-07-17T20:43:54.234Z,101185.89
2018-07-17T20:46:22.714Z,101186.87
2018-07-17T20:48:51.948Z,101179.73
2018-07-17T20:51:20.362Z,101186.55
2018-07-17T20:53:48.868Z,101188.94
2018-07-17T20:56:17.582Z,101185.88
2018-07-17T20:58:46.484Z,101186.39
2018-07-17T21:01:15.546Z,101186.99
2018-07-17T21:03:44.302Z,101182.68
2018-07-17T21:06:13.101Z,101185.04
2018-07-17T21:08:41.567Z,101179.75
2018-07-17T21:11:10.466Z,101176.23
2018-07-17T21:13:39.149Z,101172.76
2018-07-17T21:16:08.534Z,101170.67
2018-07-17T21:18:37.358Z,101169.93
2018-07-17T21:21:05.813Z,101164.73
2018-07-17T21:23:34.489Z,101165.28
2018-07-17T21:26:03.090Z,101162.27
2018-07-17T21:28:31.845Z,101156.52
2018-07-17T21:31:00.544Z,101156.19
2018-07-17T21:33:29.137Z,101158.50
2018-07-17T21:35:57.604Z,101160.34
2018-07-17T21:38:26.305Z,101159.13
2018-07-17T21:40:55.600Z,101161.10
2018-07-17T21:43:24.089Z,101159.88
2018-07-17T21:45:52.737Z,101173.55
2018-07-17T21:48:21.597Z,101169.34
2018-07-17T21:50:51.074Z,101174.84
2018-07-17T21:53:20.018Z,101178.91
2018-07-17T21:55:49.123Z,101178.48
2018-07-17T21:58:17.625Z,101180.32
2018-07-17T22:00:46.102Z,101181.70
2018-07-17T22:03:15.235Z,101186.30
2018-07-17T22:05:43.710Z,101181.12
2018-07-17T22:08:12.150Z,101177.19
2018-07-17T22:10:41.537Z,101179.02
2018-07-17T22:13:09.958Z,101180.13
2018-07-17T22:15:38.537Z,101182.19
2018-07-17T22:18:08.024Z,101178.34
2018-07-17T22:20:36.728Z,101178.49
2018-07-17T22:23:05.732Z,101181.70
2018-07-17T22:25:34.224Z,101171.86
2018-07-17T22:28:03.078Z,101177.33
2018-07-17T22:30:31.814Z,101170.67
2018-07-17T22:33:00.315Z,101167.14
2018-07-17T22:35:29.421Z,101173.88
2018-07-17T22:37:58.272Z,101170.45
2018-07-17T22:40:27.097Z,101167.06
2018-07-17T22:42:55.595Z,101170.20
2018-07-17T22:45:24.193Z,101167.98
2018-07-17T22:47:53.069Z,101167.55
2018-07-17T22:50:21.505Z,101165.44
2018-07-17T22:52:50.221Z,101165.58
2018-07-17T22:55:19.257Z,101157.57
2018-07-17T22:57:47.702Z,101159.86
2018-07-17T23:00:16.414Z,101165.67
2018-07-17T23:02:45.079Z,101014.95
2018-07-17T23:05:13.805Z,101162.18
2018-07-17T23:07:42.341Z,101162.27
2018-07-17T23:10:11.253Z,101163.22
2018-07-17T23:12:39.706Z,101158.39
2018-07-17T23:15:08.493Z,101156.72
2018-07-17T23:17:37.441Z,101150.09
2018-07-17T23:20:07.044Z,101151.92
2018-07-17T23:22:53.529Z,101154.14
2018-07-17T23:25:23.530Z,101149.80
2018-07-17T23:27:52.389Z,101143.65
2018-07-17T23:30:20.867Z,101144.08
2018-07-17T23:32:50.995Z,101147.18
2018-07-17T23:35:20.920Z,101148.06
2018-07-17T23:37:49.886Z,101145.02
2018-07-17T23:40:18.553Z,101149.06
2018-07-17T23:42:48.065Z,101147.79
2018-07-17T23:45:17.203Z,101147.83
2018-07-17T23:47:46.492Z,101148.73
2018-07-17T23:50:15.776Z,101144.75
2018-07-17T23:52:44.253Z,101141.31
2018-07-17T23:55:12.849Z,101150.77
2018-07-17T23:57:42.053Z,101144.05
